createdAt,value
2018-04-24T00:00:59.513Z,0.00
2018-04-24T00:01:59.509Z,0.00
2018-04-24T00:02:59.507Z,0.00
2018-04-24T00:03:59.503Z,0.00
2018-04-24T00:04:59.502Z,0.00
2018-04-24T00:05:59.499Z,0.00
2018-04-24T00:06:59.495Z,0.00
2018-04-24T00:07:59.489Z,0.00
2018-04-24T00:08:59.483Z,0.00
2018-04-24T00:09:59.479Z,0.00
2018-04-24T00:10:59.477Z,0.00
2018-04-24T00:11:59.473Z,0.00
2018-04-24T00:12:59.468Z,0.00
2018-04-24T00:13:59.465Z,0.00
2018-04-24T00:14:59.463Z,0.00
2018-04-24T00:15:59.461Z,0.00
2018-04-24T00:16:59.458Z,0.00
2018-04-24T00:17:59.455Z,0.00
2018-04-24T00:18:59.453Z,0.00
2018-04-24T00:19:59.447Z,0.00
2018-04-24T00:20:59.438Z,0.00
2018-04-24T00:21:59.443Z,0.00
2018-04-24T00:22:59.438Z,0.00
2018-04-24T00:23:59.429Z,0.00
2018-04-24T00:24:59.424Z,0.00
2018-04-24T00:25:59.435Z,0.00
2018-04-24T00:26:59.416Z,0.00
2018-04-24T00:27:59.413Z,0.00
2018-04-24T00:28:59.408Z,0.00
2018-04-24T00:29:59.406Z,0.00
2018-04-24T00:30:59.410Z,0.00
2018-04-24T00:31:59.402Z,0.00
2018-04-24T00:32:59.393Z,0.00
2018-04-24T00:33:59.391Z,0.00
2018-04-24T00:34:59.389Z,0.00
2018-04-24T00:35:59.382Z,0.00
2018-04-24T00:36:59.382Z,0.00
2018-04-24T00:37:59.378Z,0.00
2018-04-24T00:38:59.371Z,0.00
2018-04-24T00:39:59.367Z,0.00
2018-04-24T00:40:59.363Z,0.00
2018-04-24T00:41:59.359Z,0.00
2018-04-24T00:42:59.355Z,0.00
2018-04-24T00:43:59.353Z,0.00
2018-04-24T00:44:59.348Z,0.00
2018-04-24T00:45:59.344Z,0.00
2018-04-24T00:46:59.340Z,0.00
2018-04-24T00:47:59.336Z,0.00
2018-04-24T00:48:59.335Z,0.00
2018-04-24T00:49:59.332Z,0.00
2018-04-24T00:50:59.331Z,0.00
2018-04-24T00:51:59.324Z,0.00
2018-04-24T00:52:59.316Z,0.00
2018-04-24T00:53:59.312Z,0.00
2018-04-24T00:54:59.308Z,0.00
2018-04-24T00:55:59.304Z,0.00
2018-04-24T00:56:59.299Z,0.00
2018-04-24T00:57:59.296Z,0.00
2018-04-24T00:58:59.293Z,0.00
2018-04-24T00:59:59.288Z,0.00
2018-04-24T01:00:59.283Z,0.00
2018-04-24T01:01:59.280Z,0.00
2018-04-24T01:02:59.280Z,0.00
2018-04-24T01:03:59.276Z,0.00
2018-04-24T01:04:59.267Z,0.00
2018-04-24T01:05:59.263Z,0.00
2018-04-24T01:06:59.260Z,0.00
2018-04-24T01:07:59.256Z,0.00
2018-04-24T01:08:59.255Z,0.00
2018-04-24T01:09:59.251Z,0.00
2018-04-24T01:10:59.245Z,0.00
2018-04-24T01:11:59.241Z,0.00
2018-04-24T01:12:59.241Z,0.00
2018-04-24T01:13:59.232Z,0.00
2018-04-24T01:14:59.230Z,0.00
2018-04-24T01:15:59.224Z,0.00
2018-04-24T01:16:59.248Z,0.00
2018-04-24T01:17:59.216Z,0.00
2018-04-24T01:18:59.211Z,0.00
2018-04-24T01:19:59.208Z,0.00
2018-04-24T01:20:59.207Z,0.00
2018-04-24T01:21:59.203Z,0.00
2018-04-24T01:22:59.199Z,0.00
2018-04-24T01:23:59.197Z,0.00
2018-04-24T01:24:59.186Z,0.00
2018-04-24T01:25:59.186Z,0.00
2018-04-24T01:26:59.180Z,0.00
2018-04-24T01:27:59.175Z,0.00
2018-04-24T01:28:59.172Z,0.00
2018-04-24T01:29:59.167Z,0.00
2018-04-24T01:30:59.165Z,0.00
2018-04-24T01:31:59.158Z,0.00
2018-04-24T01:32:59.153Z,0.00
2018-04-24T01:33:59.150Z,0.00
2018-04-24T01:34:59.149Z,0.00
2018-04-24T01:35:59.145Z,0.00
2018-04-24T01:36:59.136Z,0.00
2018-04-24T01:37:59.132Z,0.00
2018-04-24T01:38:59.128Z,0.00
2018-04-24T01:39:59.125Z,0.00
2018-04-24T01:40:59.123Z,0.00
2018-04-24T01:41:59.120Z,0.00
2018-04-24T01:42:59.112Z,0.00
2018-04-24T01:43:59.107Z,0.00
2018-04-24T01:44:59.105Z,0.00
2018-04-24T01:45:59.098Z,0.00
2018-04-24T01:46:59.095Z,0.00
2018-04-24T01:47:59.092Z,0.00
2018-04-24T01:48:59.084Z,0.00
2018-04-24T01:49:59.081Z,0.00
2018-04-24T01:50:59.080Z,0.00
2018-04-24T01:51:59.072Z,0.00
2018-04-24T01:52:59.071Z,0.00
2018-04-24T01:53:59.067Z,0.00
2018-04-24T01:54:59.066Z,0.00
2018-04-24T01:55:59.061Z,0.00
2018-04-24T01:56:59.049Z,0.00
2018-04-24T01:57:59.045Z,0.00
2018-04-24T01:58:59.042Z,0.00
2018-04-24T01:59:59.040Z,0.00
2018-04-24T02:00:59.032Z,0.00
2018-04-24T02:01:59.030Z,0.00
2018-04-24T02:02:59.025Z,0.00
2018-04-24T02:03:59.024Z,0.00
2018-04-24T02:04:59.015Z,0.00
2018-04-24T02:05:59.011Z,0.00
2018-04-24T02:06:59.010Z,0.00
2018-04-24T02:07:59.005Z,0.00
2018-04-24T02:08:58.996Z,0.00
2018-04-24T02:09:58.994Z,0.00
2018-04-24T02:10:58.988Z,0.00
2018-04-24T02:11:58.983Z,0.00
2018-04-24T02:12:58.978Z,0.00
2018-04-24T02:13:58.975Z,0.00
2018-04-24T02:14:58.973Z,0.00
2018-04-24T02:15:58.969Z,0.00
2018-04-24T02:16:58.960Z,0.00
2018-04-24T02:17:58.954Z,0.00
2018-04-24T02:18:58.955Z,0.00
2018-04-24T02:19:58.950Z,0.00
2018-04-24T02:20:58.941Z,0.00
2018-04-24T02:21:58.937Z,0.00
2018-04-24T02:22:58.932Z,0.00
2018-04-24T02:23:58.929Z,0.00
2018-04-24T02:24:58.925Z,0.00
2018-04-24T02:25:58.918Z,0.00
2018-04-24T02:26:58.916Z,0.00
2018-04-24T02:27:58.910Z,0.00
2018-04-24T02:28:58.905Z,0.00
2018-04-24T02:29:58.901Z,0.00
2018-04-24T02:30:58.896Z,0.00
2018-04-24T02:31:58.893Z,0.00
2018-04-24T02:32:58.894Z,0.00
2018-04-24T02:33:58.887Z,0.00
2018-04-24T02:34:58.878Z,0.00
2018-04-24T02:35:58.874Z,0.00
2018-04-24T02:36:58.872Z,0.00
2018-04-24T02:37:58.868Z,0.00
2018-04-24T02:38:58.860Z,0.00
2018-04-24T02:39:58.867Z,0.00
2018-04-24T02:40:58.849Z,0.00
2018-04-24T02:41:58.855Z,0.00
2018-04-24T02:42:58.844Z,0.00
2018-04-24T02:43:58.836Z,0.00
2018-04-24T02:44:58.831Z,0.00
2018-04-24T02:45:58.826Z,0.00
2018-04-24T02:46:58.826Z,0.00
2018-04-24T02:47:58.820Z,0.00
2018-04-24T02:48:58.813Z,0.00
2018-04-24T02:49:58.807Z,0.00
2018-04-24T02:50:58.805Z,0.00
2018-04-24T02:51:58.801Z,0.00
2018-04-24T02:52:58.792Z,0.00
2018-04-24T02:53:58.789Z,0.00
2018-04-24T02:54:58.783Z,0.00
2018-04-24T02:55:58.778Z,0.00
2018-04-24T02:56:58.773Z,0.00
2018-04-24T02:57:58.772Z,0.00
2018-04-24T02:58:58.763Z,0.00
2018-04-24T02:59:58.759Z,0.00
2018-04-24T03:00:58.753Z,0.00
2018-04-24T03:01:58.753Z,0.00
2018-04-24T03:02:58.744Z,0.00
2018-04-24T03:03:58.747Z,0.00
2018-04-24T03:04:58.737Z,0.00
2018-04-24T03:05:58.735Z,0.00
2018-04-24T03:06:58.724Z,0.00
2018-04-24T03:07:58.721Z,0.00
2018-04-24T03:08:58.717Z,0.00
2018-04-24T03:09:58.716Z,0.00
2018-04-24T03:10:58.710Z,0.00
2018-04-24T03:11:58.701Z,0.00
2018-04-24T03:12:58.695Z,0.00
2018-04-24T03:13:58.689Z,0.00
2018-04-24T03:14:58.684Z,0.00
2018-04-24T03:15:58.681Z,0.00
2018-04-24T03:16:58.678Z,0.00
2018-04-24T03:17:58.673Z,0.00
2018-04-24T03:18:58.665Z,0.00
2018-04-24T03:19:58.661Z,0.00
2018-04-24T03:20:58.656Z,0.00
2018-04-24T03:21:58.650Z,0.00
2018-04-24T03:22:58.645Z,0.00
2018-04-24T03:23:58.640Z,0.00
2018-04-24T03:24:58.635Z,0.00
2018-04-24T03:25:58.630Z,0.00
2018-04-24T03:26:58.626Z,0.00
2018-04-24T03:27:58.620Z,0.00
2018-04-24T03:28:58.620Z,0.00
2018-04-24T03:29:58.616Z,0.00
2018-04-24T03:30:58.610Z,0.00
2018-04-24T03:31:58.605Z,0.00
2018-04-24T03:32:58.595Z,0.00
2018-04-24T03:33:58.590Z,0.00
2018-04-24T03:34:58.586Z,0.00
2018-04-24T03:35:58.582Z,0.00
2018-04-24T03:36:58.577Z,0.00
2018-04-24T03:37:58.572Z,0.00
2018-04-24T03:38:58.571Z,0.00
2018-04-24T03:39:58.562Z,0.00
2018-04-24T03:40:58.557Z,0.00
2018-04-24T03:41:58.552Z,0.00
2018-04-24T03:42:58.550Z,0.00
2018-04-24T03:43:58.545Z,0.00
2018-04-24T03:44:58.536Z,0.00
2018-04-24T03:45:58.531Z,4.00
2018-04-24T03:46:58.525Z,4.00
2018-04-24T03:47:58.520Z,0.00
2018-04-24T03:48:58.519Z,0.00
2018-04-24T03:49:58.515Z,4.00
2018-04-24T03:50:58.511Z,4.00
2018-04-24T03:51:58.503Z,4.00
2018-04-24T03:52:58.495Z,4.00
2018-04-24T03:53:58.491Z,4.00
2018-04-24T03:54:58.485Z,8.00
2018-04-24T03:55:58.481Z,8.00
2018-04-24T03:56:58.480Z,8.00
2018-04-24T03:57:58.470Z,12.00
2018-04-24T03:58:58.469Z,12.00
2018-04-24T03:59:58.464Z,12.00
2018-04-24T04:00:58.459Z,20.00
2018-04-24T04:01:58.456Z,20.00
2018-04-24T04:02:58.449Z,24.00
2018-04-24T04:03:58.452Z,28.00
2018-04-24T04:04:58.435Z,32.00
2018-04-24T04:05:58.432Z,36.00
2018-04-24T04:06:58.426Z,40.00
2018-04-24T04:07:58.422Z,48.00
2018-04-24T04:08:58.415Z,52.00
2018-04-24T04:09:58.411Z,60.00
2018-04-24T04:10:58.406Z,64.00
2018-04-24T04:11:58.401Z,72.00
2018-04-24T04:12:58.396Z,80.00
2018-04-24T04:13:58.398Z,88.00
2018-04-24T04:14:58.389Z,96.00
2018-04-24T04:15:58.464Z,104.00
2018-04-24T04:16:58.375Z,120.00
2018-04-24T04:17:58.370Z,132.00
2018-04-24T04:18:58.365Z,148.00
2018-04-24T04:19:58.360Z,160.00
2018-04-24T04:20:58.355Z,180.00
2018-04-24T04:21:58.350Z,192.00
2018-04-24T04:22:58.349Z,200.00
2018-04-24T04:23:58.344Z,220.00
2018-04-24T04:24:58.334Z,236.00
2018-04-24T04:25:58.329Z,260.00
2018-04-24T04:26:58.332Z,288.00
2018-04-24T04:27:58.327Z,312.00
2018-04-24T04:28:58.315Z,336.00
2018-04-24T04:29:58.309Z,356.00
2018-04-24T04:30:58.306Z,376.00
2018-04-24T04:31:58.300Z,396.00
2018-04-24T04:32:58.325Z,420.00
2018-04-24T04:33:58.341Z,448.00
2018-04-24T04:34:58.284Z,472.00
2018-04-24T04:35:58.347Z,492.00
2018-04-24T04:36:58.274Z,516.00
2018-04-24T04:37:58.269Z,532.00
2018-04-24T04:38:58.264Z,568.00
2018-04-24T04:39:58.260Z,604.00
2018-04-24T04:40:58.258Z,628.00
2018-04-24T04:41:58.254Z,648.00
2018-04-24T04:42:58.249Z,652.00
2018-04-24T04:43:58.244Z,672.00
2018-04-24T04:44:58.239Z,696.00
2018-04-24T04:45:58.234Z,704.00
2018-04-24T04:46:58.225Z,724.00
2018-04-24T04:47:58.221Z,748.00
2018-04-24T04:48:58.216Z,772.00
2018-04-24T04:49:58.211Z,832.00
2018-04-24T04:50:58.209Z,916.00
2018-04-24T04:51:58.202Z,992.00
2018-04-24T04:52:58.197Z,1064.00
2018-04-24T04:53:58.193Z,1124.00
2018-04-24T04:54:58.195Z,1164.00
2018-04-24T04:55:58.187Z,1180.00
2018-04-24T04:56:58.177Z,1184.00
2018-04-24T04:57:58.177Z,1188.00
2018-04-24T04:58:58.173Z,1208.00
2018-04-24T04:59:58.169Z,1220.00
2018-04-24T05:00:58.159Z,1236.00
2018-04-24T05:01:58.155Z,1248.00
2018-04-24T05:02:58.151Z,1260.00
2018-04-24T05:03:58.146Z,1284.00
2018-04-24T05:04:58.140Z,1304.00
2018-04-24T05:05:58.136Z,1324.00
2018-04-24T05:06:58.137Z,1352.00
2018-04-24T05:07:58.128Z,1400.00
2018-04-24T05:08:58.122Z,1428.00
2018-04-24T05:09:58.117Z,1472.00
2018-04-24T05:10:58.114Z,1484.00
2018-04-24T05:11:58.135Z,1496.00
2018-04-24T05:12:58.109Z,1532.00
2018-04-24T05:13:58.106Z,1588.00
2018-04-24T05:14:58.096Z,1668.00
2018-04-24T05:15:58.093Z,1776.00
2018-04-24T05:16:58.091Z,1896.00
2018-04-24T05:17:58.092Z,2000.00
2018-04-24T05:18:58.078Z,2072.00
2018-04-24T05:19:58.076Z,2120.00
2018-04-24T05:20:58.069Z,2152.00
2018-04-24T05:21:58.066Z,2188.00
2018-04-24T05:22:58.061Z,2184.00
2018-04-24T05:23:58.061Z,2200.00
2018-04-24T05:24:58.056Z,2220.00
2018-04-24T05:25:58.052Z,2192.00
2018-04-24T05:26:58.044Z,2168.00
2018-04-24T05:27:58.040Z,2104.00
2018-04-24T05:28:58.035Z,2048.00
2018-04-24T05:29:58.032Z,1972.00
2018-04-24T05:30:58.029Z,1968.00
2018-04-24T05:31:58.024Z,1940.00
2018-04-24T05:32:58.018Z,1952.00
2018-04-24T05:33:58.091Z,2028.00
2018-04-24T05:34:58.011Z,2060.00
2018-04-24T05:35:58.012Z,2124.00
2018-04-24T05:36:58.009Z,2216.00
2018-04-24T05:37:58.002Z,2236.00
2018-04-24T05:38:57.998Z,2304.00
2018-04-24T05:39:57.994Z,2448.00
2018-04-24T05:40:57.987Z,2488.00
2018-04-24T05:41:57.982Z,2416.00
2018-04-24T05:42:57.978Z,2328.00
2018-04-24T05:43:57.975Z,2312.00
2018-04-24T05:44:57.974Z,2272.00
2018-04-24T05:45:57.969Z,2288.00
2018-04-24T05:46:57.963Z,2332.00
2018-04-24T05:47:57.958Z,2348.00
2018-04-24T05:48:57.953Z,2352.00
2018-04-24T05:49:57.950Z,2360.00
2018-04-24T05:50:57.950Z,2432.00
2018-04-24T05:51:57.946Z,2548.00
2018-04-24T05:52:58.003Z,2688.00
2018-04-24T05:53:57.934Z,2836.00
2018-04-24T05:54:57.930Z,2888.00
2018-04-24T05:55:57.927Z,2800.00
2018-04-24T05:56:57.927Z,2904.00
2018-04-24T05:57:57.922Z,2988.00
2018-04-24T05:58:57.915Z,3164.00
2018-04-24T05:59:57.912Z,3384.00
2018-04-24T06:00:57.906Z,3588.00
2018-04-24T06:01:57.903Z,3732.00
2018-04-24T06:02:57.911Z,3848.00
2018-04-24T06:03:57.897Z,3980.00
2018-04-24T06:04:57.891Z,4104.00
2018-04-24T06:05:57.889Z,4200.00
2018-04-24T06:06:57.885Z,4360.00
2018-04-24T06:07:57.882Z,4544.00
2018-04-24T06:08:57.881Z,4692.00
2018-04-24T06:09:57.878Z,4856.00
2018-04-24T06:10:57.875Z,5056.00
2018-04-24T06:11:57.871Z,5280.00
2018-04-24T06:12:57.863Z,5452.00
2018-04-24T06:13:57.860Z,5544.00
2018-04-24T06:14:57.946Z,5696.00
2018-04-24T06:15:57.853Z,5756.00
2018-04-24T06:16:57.848Z,5660.00
2018-04-24T06:17:57.848Z,5572.00
2018-04-24T06:18:57.842Z,5716.00
2018-04-24T06:19:57.845Z,5856.00
2018-04-24T06:20:57.841Z,5864.00
2018-04-24T06:21:57.832Z,5932.00
2018-04-24T06:22:57.837Z,6104.00
2018-04-24T06:23:57.831Z,6432.00
2018-04-24T06:24:57.824Z,6592.00
2018-04-24T06:25:57.820Z,6756.00
2018-04-24T06:26:57.817Z,6672.00
2018-04-24T06:27:57.817Z,6396.00
2018-04-24T06:28:57.810Z,6388.00
2018-04-24T06:29:57.808Z,6328.00
2018-04-24T06:30:57.809Z,5840.00
2018-04-24T06:31:57.808Z,5552.00
2018-04-24T06:32:57.801Z,5404.00
2018-04-24T06:33:57.796Z,5348.00
2018-04-24T06:34:57.798Z,5632.00
2018-04-24T06:35:57.880Z,5816.00
2018-04-24T06:36:57.787Z,6596.00
2018-04-24T06:37:57.786Z,7476.00
2018-04-24T06:38:57.783Z,7988.00
2018-04-24T06:39:57.780Z,8336.00
2018-04-24T06:40:57.777Z,7992.00
2018-04-24T06:41:57.775Z,8100.00
2018-04-24T06:42:57.772Z,7960.00
2018-04-24T06:43:57.770Z,8008.00
2018-04-24T06:44:57.767Z,8048.00
2018-04-24T06:45:57.764Z,7856.00
2018-04-24T06:46:57.763Z,6992.00
2018-04-24T06:47:57.766Z,6004.00
2018-04-24T06:48:57.762Z,5664.00
2018-04-24T06:49:57.758Z,5420.00
2018-04-24T06:50:57.756Z,5384.00
2018-04-24T06:51:57.751Z,5312.00
2018-04-24T06:52:57.752Z,5592.00
2018-04-24T06:53:57.750Z,5828.00
2018-04-24T06:54:57.813Z,6020.00
2018-04-24T06:55:57.743Z,6148.00
2018-04-24T06:56:57.739Z,6044.00
2018-04-24T06:57:57.742Z,5756.00
2018-04-24T06:58:57.736Z,5340.00
2018-04-24T06:59:57.734Z,5228.00
2018-04-24T07:00:57.732Z,5304.00
2018-04-24T07:01:57.729Z,5632.00
2018-04-24T07:02:57.731Z,5944.00
2018-04-24T07:03:57.730Z,5992.00
2018-04-24T07:04:57.722Z,5852.00
2018-04-24T07:05:57.721Z,5720.00
2018-04-24T07:06:57.722Z,5612.00
2018-04-24T07:07:57.721Z,5728.00
2018-04-24T07:08:57.716Z,5724.00
2018-04-24T07:09:57.713Z,5732.00
2018-04-24T07:10:57.710Z,6028.00
2018-04-24T07:11:57.711Z,6300.00
2018-04-24T07:12:57.706Z,6208.00
2018-04-24T07:13:57.713Z,6288.00
2018-04-24T07:14:57.702Z,6464.00
2018-04-24T07:15:57.699Z,6452.00
2018-04-24T07:16:57.735Z,5892.00
2018-04-24T07:17:57.694Z,5448.00
2018-04-24T07:18:57.692Z,4820.00
2018-04-24T07:19:57.690Z,4276.00
2018-04-24T07:20:57.691Z,4172.00
2018-04-24T07:21:57.690Z,4224.00
2018-04-24T07:22:57.684Z,4608.00
2018-04-24T07:23:57.682Z,4808.00
2018-04-24T07:24:57.683Z,4788.00
2018-04-24T07:25:57.681Z,4648.00
2018-04-24T07:26:57.675Z,4520.00
2018-04-24T07:27:57.675Z,4492.00
2018-04-24T07:28:57.672Z,4568.00
2018-04-24T07:29:57.668Z,4728.00
2018-04-24T07:30:57.667Z,4820.00
2018-04-24T07:31:57.665Z,4744.00
2018-04-24T07:32:57.746Z,4496.00
2018-04-24T07:33:57.664Z,4100.00
2018-04-24T07:34:57.659Z,3504.00
2018-04-24T07:35:57.656Z,3312.00
2018-04-24T07:36:57.654Z,3332.00
2018-04-24T07:37:57.651Z,3400.00
2018-04-24T07:38:57.651Z,3448.00
2018-04-24T07:39:57.647Z,3592.00
2018-04-24T07:40:57.700Z,3560.00
2018-04-24T07:41:57.644Z,3528.00
2018-04-24T07:42:57.641Z,3424.00
2018-04-24T07:43:57.639Z,3356.00
2018-04-24T07:44:57.638Z,3232.00
2018-04-24T07:45:57.637Z,3384.00
2018-04-24T07:46:57.635Z,3788.00
2018-04-24T07:47:57.632Z,3996.00
2018-04-24T07:48:57.625Z,3972.00
2018-04-24T07:49:57.623Z,3880.00
2018-04-24T07:50:57.621Z,3908.00
2018-04-24T07:51:57.619Z,3748.00
2018-04-24T07:52:57.617Z,3420.00
2018-04-24T07:53:57.612Z,3284.00
2018-04-24T07:54:57.613Z,3716.00
2018-04-24T07:55:57.610Z,4340.00
2018-04-24T07:56:57.609Z,4760.00
2018-04-24T07:57:57.604Z,4724.00
2018-04-24T07:58:57.605Z,4776.00
2018-04-24T07:59:57.602Z,4484.00
2018-04-24T08:00:57.597Z,4132.00
2018-04-24T08:01:57.593Z,4308.00
2018-04-24T08:02:57.596Z,4412.00
2018-04-24T08:03:57.589Z,4580.00
2018-04-24T08:04:57.590Z,4612.00
2018-04-24T08:05:57.587Z,4472.00
2018-04-24T08:06:57.582Z,4204.00
2018-04-24T08:07:57.585Z,3880.00
2018-04-24T08:08:57.577Z,4300.00
2018-04-24T08:09:57.575Z,4652.00
2018-04-24T08:10:57.573Z,4812.00
2018-04-24T08:11:57.573Z,5120.00
2018-04-24T08:12:57.568Z,5120.00
2018-04-24T08:13:57.564Z,5104.00
2018-04-24T08:14:57.563Z,4424.00
2018-04-24T08:15:57.560Z,4952.00
2018-04-24T08:16:57.561Z,5148.00
2018-04-24T08:17:57.559Z,4636.00
2018-04-24T08:18:57.558Z,4696.00
2018-04-24T08:19:57.555Z,4896.00
2018-04-24T08:20:57.548Z,4844.00
2018-04-24T08:21:57.546Z,4872.00
2018-04-24T08:22:57.578Z,4344.00
2018-04-24T08:23:57.542Z,4048.00
2018-04-24T08:24:57.538Z,4008.00
2018-04-24T08:25:57.537Z,4160.00
2018-04-24T08:26:57.534Z,4044.00
2018-04-24T08:27:57.531Z,4500.00
2018-04-24T08:28:57.529Z,4716.00
2018-04-24T08:29:57.526Z,4744.00
2018-04-24T08:30:57.530Z,4920.00
2018-04-24T08:31:57.526Z,5180.00
2018-04-24T08:32:57.518Z,5208.00
2018-04-24T08:33:57.516Z,5004.00
2018-04-24T08:34:57.518Z,4460.00
2018-04-24T08:35:57.513Z,4196.00
2018-04-24T08:36:57.509Z,4552.00
2018-04-24T08:37:57.508Z,5092.00
2018-04-24T08:38:57.514Z,5316.00
2018-04-24T08:39:57.514Z,6072.00
2018-04-24T08:40:57.499Z,5428.00
2018-04-24T08:41:57.497Z,4728.00
2018-04-24T08:42:57.501Z,4816.00
2018-04-24T08:43:57.498Z,5436.00
2018-04-24T08:44:57.489Z,5504.00
2018-04-24T08:45:57.489Z,4600.00
2018-04-24T08:46:57.486Z,4624.00
2018-04-24T08:47:57.565Z,4980.00
2018-04-24T08:48:57.482Z,5628.00
2018-04-24T08:49:57.481Z,6104.00
2018-04-24T08:50:57.477Z,6456.00
2018-04-24T08:51:57.478Z,6292.00
2018-04-24T08:52:57.472Z,5624.00
2018-04-24T08:53:57.471Z,5132.00
2018-04-24T08:54:57.470Z,4660.00
2018-04-24T08:55:57.466Z,4036.00
2018-04-24T08:56:57.468Z,3292.00
2018-04-24T08:57:57.465Z,2592.00
2018-04-24T08:58:57.459Z,3228.00
2018-04-24T08:59:57.460Z,4000.00
2018-04-24T09:00:57.458Z,4236.00
2018-04-24T09:01:57.473Z,3972.00
2018-04-24T09:02:57.451Z,3536.00
2018-04-24T09:03:57.447Z,4088.00
2018-04-24T09:04:57.445Z,5340.00
2018-04-24T09:05:57.441Z,6396.00
2018-04-24T09:06:57.447Z,6360.00
2018-04-24T09:07:57.438Z,5128.00
2018-04-24T09:08:57.435Z,4452.00
2018-04-24T09:09:57.432Z,4584.00
2018-04-24T09:10:57.433Z,5476.00
2018-04-24T09:11:57.431Z,5184.00
2018-04-24T09:12:57.424Z,4700.00
2018-04-24T09:13:57.474Z,4168.00
2018-04-24T09:14:57.424Z,4228.00
2018-04-24T09:15:57.424Z,4956.00
2018-04-24T09:16:57.414Z,6488.00
2018-04-24T09:17:57.411Z,7872.00
2018-04-24T09:18:57.410Z,8920.00
2018-04-24T09:19:57.411Z,8632.00
2018-04-24T09:20:57.406Z,8388.00
2018-04-24T09:21:57.400Z,7356.00
2018-04-24T09:22:57.398Z,8088.00
2018-04-24T09:23:57.396Z,8060.00
2018-04-24T09:24:57.391Z,8316.00
2018-04-24T09:25:57.389Z,7684.00
2018-04-24T09:26:57.420Z,7444.00
2018-04-24T09:27:57.384Z,6908.00
2018-04-24T09:28:57.386Z,7052.00
2018-04-24T09:29:57.382Z,6376.00
2018-04-24T09:30:57.375Z,6280.00
2018-04-24T09:31:57.374Z,6880.00
2018-04-24T09:32:57.378Z,6344.00
2018-04-24T09:33:57.372Z,7788.00
2018-04-24T09:34:57.366Z,8496.00
2018-04-24T09:35:57.363Z,9564.00
2018-04-24T09:36:57.361Z,9212.00
2018-04-24T09:37:57.358Z,8208.00
2018-04-24T09:38:57.416Z,8444.00
2018-04-24T09:39:57.354Z,6656.00
2018-04-24T09:40:57.350Z,5980.00
2018-04-24T09:41:57.351Z,6700.00
2018-04-24T09:42:57.350Z,7456.00
2018-04-24T09:43:57.377Z,6076.00
2018-04-24T09:44:57.343Z,5788.00
2018-04-24T09:45:57.428Z,5560.00
2018-04-24T09:46:57.342Z,5104.00
2018-04-24T09:47:57.340Z,4252.00
2018-04-24T09:48:57.395Z,5452.00
2018-04-24T09:49:57.331Z,5108.00
2018-04-24T09:50:57.329Z,5392.00
2018-04-24T09:51:57.328Z,6000.00
2018-04-24T09:52:57.324Z,4996.00
2018-04-24T09:53:57.322Z,4636.00
2018-04-24T09:54:57.321Z,5064.00
2018-04-24T09:55:57.320Z,5668.00
2018-04-24T09:56:57.316Z,6368.00
2018-04-24T09:57:57.317Z,6412.00
2018-04-24T09:58:57.313Z,5564.00
2018-04-24T09:59:57.311Z,5144.00
2018-04-24T10:00:57.312Z,5560.00
2018-04-24T10:01:57.313Z,5028.00
2018-04-24T10:02:57.304Z,4388.00
2018-04-24T10:03:57.304Z,4672.00
2018-04-24T10:04:57.303Z,4876.00
2018-04-24T10:05:57.303Z,6472.00
2018-04-24T10:06:57.298Z,5640.00
2018-04-24T10:07:57.295Z,4892.00
2018-04-24T10:08:57.292Z,6060.00
2018-04-24T10:09:57.291Z,7008.00
2018-04-24T10:10:57.289Z,10568.00
2018-04-24T10:11:57.287Z,11236.00
2018-04-24T10:12:57.310Z,9996.00
2018-04-24T10:13:57.287Z,8472.00
2018-04-24T10:14:57.286Z,7664.00
2018-04-24T10:15:57.285Z,6080.00
2018-04-24T10:16:57.277Z,5512.00
2018-04-24T10:17:57.277Z,5468.00
2018-04-24T10:18:57.282Z,5156.00
2018-04-24T10:19:57.277Z,5516.00
2018-04-24T10:20:57.271Z,6564.00
2018-04-24T10:21:57.270Z,5952.00
2018-04-24T10:22:57.267Z,5332.00
2018-04-24T10:23:57.266Z,5404.00
2018-04-24T10:24:57.264Z,4616.00
2018-04-24T10:25:57.266Z,5300.00
2018-04-24T10:26:57.268Z,5628.00
2018-04-24T10:27:57.260Z,7056.00
2018-04-24T10:28:57.258Z,6832.00
2018-04-24T10:29:57.257Z,6480.00
2018-04-24T10:30:57.255Z,6844.00
2018-04-24T10:31:57.254Z,6644.00
2018-04-24T10:32:57.255Z,7556.00
2018-04-24T10:33:57.254Z,5972.00
2018-04-24T10:34:57.248Z,5656.00
2018-04-24T10:35:57.248Z,5444.00
2018-04-24T10:36:57.248Z,5272.00
2018-04-24T10:37:57.246Z,5800.00
2018-04-24T10:38:57.253Z,6736.00
2018-04-24T10:39:57.240Z,7580.00
2018-04-24T10:40:57.237Z,8100.00
2018-04-24T10:41:57.236Z,6652.00
2018-04-24T10:42:57.234Z,5184.00
2018-04-24T10:43:57.234Z,5844.00
2018-04-24T10:44:57.234Z,5780.00
2018-04-24T10:45:57.233Z,5652.00
2018-04-24T10:46:57.228Z,5980.00
2018-04-24T10:47:57.249Z,5816.00
2018-04-24T10:48:57.224Z,5520.00
2018-04-24T10:49:57.230Z,5676.00
2018-04-24T10:50:57.225Z,4884.00
2018-04-24T10:51:57.221Z,5264.00
2018-04-24T10:52:57.219Z,5172.00
2018-04-24T10:53:57.218Z,5028.00
2018-04-24T10:54:57.216Z,5680.00
2018-04-24T10:55:57.249Z,5956.00
2018-04-24T10:56:57.218Z,5692.00
2018-04-24T10:57:57.215Z,5128.00
2018-04-24T10:58:57.217Z,4536.00
2018-04-24T10:59:57.214Z,4588.00
2018-04-24T11:00:57.210Z,4308.00
2018-04-24T11:01:57.206Z,5204.00
2018-04-24T11:02:57.205Z,4988.00
2018-04-24T11:03:57.207Z,4820.00
2018-04-24T11:04:57.201Z,4876.00
2018-04-24T11:05:57.200Z,5132.00
2018-04-24T11:06:57.201Z,5388.00
2018-04-24T11:07:57.199Z,5816.00
2018-04-24T11:08:57.196Z,5284.00
2018-04-24T11:09:57.194Z,4940.00
2018-04-24T11:10:57.196Z,4772.00
2018-04-24T11:11:57.261Z,4740.00
2018-04-24T11:12:57.192Z,4900.00
2018-04-24T11:13:57.190Z,4840.00
2018-04-24T11:14:57.186Z,5140.00
2018-04-24T11:15:57.185Z,5752.00
2018-04-24T11:16:57.188Z,6388.00
2018-04-24T11:17:57.186Z,6772.00
2018-04-24T11:18:57.181Z,5980.00
2018-04-24T11:19:57.180Z,5852.00
2018-04-24T11:20:57.252Z,6292.00
2018-04-24T11:21:57.186Z,6604.00
2018-04-24T11:22:57.176Z,7100.00
2018-04-24T11:23:57.178Z,7468.00
2018-04-24T11:24:57.174Z,8196.00
2018-04-24T11:25:57.171Z,8428.00
2018-04-24T11:26:57.170Z,8264.00
2018-04-24T11:27:57.171Z,7360.00
2018-04-24T11:28:57.173Z,7248.00
2018-04-24T11:29:57.171Z,6748.00
2018-04-24T11:30:57.171Z,6968.00
2018-04-24T11:31:57.173Z,6944.00
2018-04-24T11:32:57.164Z,6892.00
2018-04-24T11:33:57.164Z,6536.00
2018-04-24T11:34:57.163Z,6028.00
2018-04-24T11:35:57.174Z,5388.00
2018-04-24T11:36:57.161Z,5284.00
2018-04-24T11:37:57.161Z,5164.00
2018-04-24T11:38:57.160Z,5348.00
2018-04-24T11:39:57.160Z,5228.00
2018-04-24T11:40:57.158Z,5856.00
2018-04-24T11:41:57.156Z,5536.00
2018-04-24T11:42:57.160Z,5156.00
2018-04-24T11:43:57.172Z,4876.00
2018-04-24T11:44:57.154Z,4968.00
2018-04-24T11:45:57.152Z,4960.00
2018-04-24T11:46:57.152Z,4440.00
2018-04-24T11:47:57.151Z,4352.00
2018-04-24T11:48:57.153Z,4332.00
2018-04-24T11:49:57.149Z,4300.00
2018-04-24T11:50:57.152Z,4444.00
2018-04-24T11:51:57.151Z,4932.00
2018-04-24T11:52:57.146Z,4944.00
2018-04-24T11:53:57.145Z,4852.00
2018-04-24T11:54:57.148Z,4796.00
2018-04-24T11:55:57.147Z,4436.00
2018-04-24T11:56:57.143Z,4720.00
2018-04-24T11:57:57.141Z,4688.00
2018-04-24T11:58:57.141Z,4408.00
2018-04-24T11:59:57.138Z,4764.00
2018-04-24T12:00:57.137Z,4880.00
2018-04-24T12:01:57.137Z,4844.00
2018-04-24T12:02:57.140Z,4700.00
2018-04-24T12:03:57.135Z,4668.00
2018-04-24T12:04:57.135Z,4792.00
2018-04-24T12:05:57.133Z,4584.00
2018-04-24T12:06:57.133Z,4600.00
2018-04-24T12:07:57.131Z,4740.00
2018-04-24T12:08:57.132Z,4712.00
2018-04-24T12:09:57.177Z,5368.00
2018-04-24T12:10:57.128Z,5472.00
2018-04-24T12:11:57.127Z,5480.00
2018-04-24T12:12:57.129Z,5312.00
2018-04-24T12:13:57.134Z,5292.00
2018-04-24T12:14:57.123Z,4712.00
2018-04-24T12:15:57.154Z,4736.00
2018-04-24T12:16:57.122Z,5616.00
2018-04-24T12:17:57.121Z,6280.00
2018-04-24T12:18:57.132Z,6776.00
2018-04-24T12:19:57.119Z,7780.00
2018-04-24T12:20:57.119Z,8036.00
2018-04-24T12:21:57.118Z,7556.00
2018-04-24T12:22:57.120Z,7492.00
2018-04-24T12:23:57.124Z,6724.00
2018-04-24T12:24:57.115Z,6400.00
2018-04-24T12:25:57.113Z,7320.00
2018-04-24T12:26:57.116Z,6720.00
2018-04-24T12:27:57.116Z,6840.00
2018-04-24T12:28:57.111Z,6992.00
2018-04-24T12:29:57.110Z,6544.00